Карточка аэропорта URSS

Внимание!
Информация на этой странице в стадии наполнения.
Если вы не увидели какой-то информации, или заметили неточность - пожалуйста сообщите нам!
Спасибо!
Команда RU-STAFF
Название аэропортаСочи
Название аэропорта (англ.)Sochi
Превышение89 ft. (27.1 m.)
Координаты43°26.634', 39°56.55'
Высота перехода13000 ft
Эшелон переходаFL140 (QNH >= 1013); FL150 (QNH 977-1012); FL160 (QNH < 977)
Коды ответчика1060-1077
Зона ОрВДРостов-на-Дону РПИ (URRV)
Данные METARURSS 091230Z 13003MPS 9999 SCT120 14/08 Q1020 WS ALL RWY R06/010070 R02/////// NOSIG RMK R02/13002MPS QFE764
Проноз погоды (TAF)URSS 091055Z 0912/1012 15005G10MPS 9999 BKN100 BECMG 0914/0915 09004G09MPS SCT050CB OVC100 BECMG 0917/0918 05004G09MPS BECMG 0920/0921 10004G09MPS BKN050CB OVC100 TEMPO 0921/1008 VRB07G12MPS -TSRA BECMG 1008/1009 15004G09MPS SCT040 BKN100
NOTAMshow/hide NOTAM
AWOS   TABLE

Информация о ВПП

ВПП Длина ВПП (м.) Покрытие Курс ВПП Частота ILS
022500Цементобетон22110.5
202500Цементобетон202 
062890Цементобетон58111.1
242890Цементобетон238 

Диспетчерские позиции

Позывной Наименование органа УВД Частота
URSS_APPСочи-Подход124.600
URSS_DELСочи-Деливери132.700
URSS_FM1119.000
URSS_GNDСочи-Руление119.000
URSS_R_APPСочи-Круг119.700
URSS_TWRСочи-Старт121.200



Спутниковое изображение